Terminal Aerodrome Forecast
Issued by NWS Omaha/Valley, NE

Home | Current Version | Previous Version | Text Only | Print | Product List | Glossary Off
Versions: 1 2 3 4 5 6 7 8 9 10 11 12 13 14 15 16 17 18 19 20 21 22 23 24 25 26 27 28 29 30

710
FTUS43 KOAX 280611 AAA
TAFOFK
TAF AMD
KOFK 280611Z 2806/2906 30006KT P6SM SKC
      TEMPO 2806/2810 3SM HZ
     FM281500 36008KT P6SM SCT030
     FM290000 05006KT P6SM SCT250=

USA.gov is the U.S. government's official web portal to all federal, state and local government web resources and services.